Tiempo atmosférico en la estación meteorológica de Os De Balaguer, Lleida (515 m.)



Fecha
DESCASC
Temp. máxima en grados centígrados (hora)
DESCASC
Temp. mínima en grados centígrados (hora)
DESCASC
Temp. media en grados centígrados
DESCASC
Racha de viento máxima en m/sg (hora)
DESCASC
Velocidad máxima media en intervalos de 10 minutos(hora)
DESCASC
Precipitaciones diarias en mm
DESCASC
Precipitaciones de 00:00 a 06:00 en mm
DESCASC
Precipitaciones de 06:00 a 12:00 en mm
DESCASC
Precipitaciones de 12:00 a 18:00 en mm
DESCASC
Precipitaciones de 18:00 a 24:00 en mm
DESCASC
17-09-2020 29.2 (15:40) 19 (02:30) 24.1 6.39 (19:40) 4.72 (04:30) 0 0 0 0 0
16-09-2020 32.4 (15:20) 17.2 (05:50) 24.8 6.39 (20:00) 3.89 (16:20) 0 0 0 0 0
15-09-2020 31.3 (16:30) 16.2 (01:50) 23.8 6.39 (15:30) 4.17 (06:30) 0 0 0 0 0
14-09-2020 33 (16:50) 16.1 (07:00) 24.6 8.61 (14:20) 5 (18:50) 0 0 0 0 0
13-09-2020 33 (17:00) 16.5 (04:50) 24.8 7.22 (15:50) 3.89 (05:30) 0 0 0 0 0
12-09-2020 31 (16:30) 16.2 (04:50) 23.6 6.39 (14:40) 3.89 (14:30) 0 0 0 0 0
11-09-2020 29.8 (16:10) 12.8 (07:50) 21.3 8.89 (15:50) 5.56 (15:40) 0 0 0 0 0

Gráficas

Temp. máximas Temp. mínimas Temp. medias Precipitaciones Rachas de viento máximas Velocidades máximas media en intervalos de 10 minutos

Datos horarios

Fecha y hora oficial Temperatura (ºC) Velocidad del viento (km/h) Dirección del viento Racha (km/h) Dirección de racha Precipitación (mm) Presión (hPa) Tendencia (hPa) Humedad (%)
2020-09-17 23:00:00 22.9 3 Este 12 Este 0 -- -- 54
2020-09-17 22:00:00 23.3 8 Nordeste 14 Este 0 -- -- 56
2020-09-17 21:00:00 23.6 8 Este 18 Sur 0 -- -- 57
2020-09-17 20:00:00 25.6 13 Sur 23 Sur 0 -- -- 46
2020-09-17 19:00:00 28.4 6 Sudeste 13 Sudeste 0 -- -- 37
2020-09-17 18:00:00 27.9 5 Sur 13 Sudoeste 0 -- -- 38
2020-09-17 17:00:00 28.3 10 Sudoeste 16 Sur 0 -- -- 35
2020-09-17 16:00:00 29.1 4 Sudoeste 12 Sudoeste 0 -- -- 35
2020-09-17 15:00:00 28.5 4 Este 15 Sudoeste 0 -- -- 36
2020-09-17 14:00:00 28.6 9 Sur 18 Sudoeste 0 -- -- 37
2020-09-17 13:00:00 27.8 5 Sudeste 18 Sudeste 0 -- -- 38
2020-09-17 12:00:00 25.8 6 Este 21 Sudoeste 0 -- -- 44
2020-09-17 11:00:00 24.3 6 Nordeste 15 Este 0 -- -- 54
2020-09-17 10:00:00 21.3 11 Nordeste 15 Nordeste 0 -- -- 63
2020-09-17 09:00:00 20.3 12 Nordeste 15 Nordeste 0 -- -- 66
2020-09-17 08:00:00 19.3 13 Nordeste 17 Nordeste 0 -- -- 66
2020-09-17 07:00:00 19.5 13 Nordeste 19 Nordeste 0 -- -- 68
2020-09-17 06:00:00 19.7 14 Nordeste 20 Nordeste 0 -- -- 68
2020-09-17 05:00:00 19.5 15 Nordeste 21 Nordeste 0 -- -- 72
2020-09-17 04:00:00 19.8 13 Nordeste 18 Nordeste 0 -- -- 71
2020-09-17 03:00:00 19.9 13 Nordeste 19 Nordeste 0 -- -- 71
2020-09-17 02:00:00 20.2 9 Nordeste 14 Nordeste 0 -- -- 71
2020-09-17 01:00:00 20.8 8 Nordeste 13 Norte 0 -- -- 71
2020-09-17 00:00:00 20 7 Nordeste 13 Nordeste 0 -- -- 74
2020-09-16 23:00:00 20.6 11 Este 14 Este 0 -- -- 69
2020-09-16 22:00:00 23.2 7 Nordeste 22 Este 0 -- -- 61
2020-09-16 21:00:00 24 12 Nordeste 22 Este 0 -- -- 65
2020-09-16 20:00:00 26.1 10 Sudeste 23 Sudeste 0 -- -- 58
2020-09-16 19:00:00 29.2 8 Sudoeste 18 Sudoeste 0 -- -- 39
2020-09-16 18:00:00 31.1 10 Sur 19 Sudoeste 0 -- -- 37
2020-09-16 17:00:00 32.3 9 Sudoeste 22 Sur 0 -- -- 32
2020-09-16 16:00:00 32.1 8 Sudoeste 20 Sudoeste 0 -- -- 35
2020-09-16 15:00:00 31.4 9 Sudoeste 22 Sur 0 -- -- 37
2020-09-16 14:00:00 30.5 10 Sur 18 Sudoeste 0 -- -- 40
2020-09-16 13:00:00 29.5 9 Sudoeste 18 Sudoeste 0 -- -- 42
2020-09-16 12:00:00 28.4 8 Sudoeste 18 Sur 0 -- -- 46
2020-09-16 11:00:00 27.7 6 Sudoeste 14 Este 0 -- -- 44
2020-09-16 10:00:00 24.2 10 Este 14 Este 0 -- -- 50
2020-09-16 09:00:00 19.3 7 Nordeste 12 Nordeste 0 -- -- 67
2020-09-16 08:00:00 17.8 8 Nordeste 14 Norte 0 -- -- 68
2020-09-16 07:00:00 18 12 Nordeste 17 Norte 0 -- -- 67
2020-09-16 06:00:00 17.5 9 Nordeste 13 Nordeste 0 -- -- 70
2020-09-16 05:00:00 17.9 5 Nordeste 15 Nordeste 0 -- -- 70
2020-09-16 04:00:00 19 11 Nordeste 15 Nordeste 0 -- -- 67
2020-09-16 03:00:00 18.9 11 Nordeste 15 Este 0 -- -- 72
2020-09-16 02:00:00 18.6 8 Nordeste 15 Norte 0 -- -- 75
2020-09-16 01:00:00 19.7 10 Nordeste 18 Nordeste 0 -- -- 70
2020-09-16 00:00:00 20.3 8 Nordeste 16 Nordeste 0 -- -- 69
2020-09-15 23:00:00 19.2 6 Nordeste 11 Nordeste 0 -- -- 72
2020-09-15 22:00:00 21.7 4 Norte 15 Sudeste 0 -- -- 64
2020-09-15 21:00:00 20.8 6 Nordeste 10 Nordeste 0 -- -- 56
2020-09-15 20:00:00 25.4 3 Nordeste 14 Sudoeste 0 -- -- 46
2020-09-15 19:00:00 28.8 11 Sudoeste 18 Sur 0 -- -- 36
2020-09-15 18:00:00 30.2 9 Sudoeste 22 Sudoeste 0 -- -- 35
2020-09-15 17:00:00 30.8 12 Sur 21 Sudoeste 0 -- -- 34
2020-09-15 16:00:00 30.5 12 Sur 23 Sudoeste 0 -- -- 34
2020-09-15 15:00:00 31.1 11 Sudoeste 23 Sudoeste 0 -- -- 34
2020-09-15 14:00:00 30.1 8 Sudoeste 20 Sudoeste 0 -- -- 33
2020-09-15 13:00:00 27.6 12 Sudoeste 18 Sudoeste 0 -- -- 37
2020-09-15 12:00:00 27.7 11 Sudoeste 18 Sudoeste 0 -- -- 40
2020-09-15 11:00:00 25.6 5 Sudeste 11 Este 0 -- -- 42
2020-09-15 10:00:00 20.1 6 Nordeste 13 Este 0 -- -- 60
2020-09-15 09:00:00 18.3 6 Nordeste 15 Nordeste 0 -- -- 63
2020-09-15 08:00:00 17.1 13 Nordeste 22 Nordeste 0 -- -- 66
2020-09-15 07:00:00 17 12 Nordeste 19 Nordeste 0 -- -- 66
2020-09-15 06:00:00 17.5 12 Nordeste 16 Nordeste 0 -- -- 64
2020-09-15 05:00:00 18 13 Nordeste 18 Nordeste 0 -- -- 62
2020-09-15 04:00:00 18.5 13 Nordeste 18 Nordeste 0 -- -- 62
2020-09-15 03:00:00 17.3 10 Nordeste 17 Este 0 -- -- 67
2020-09-15 02:00:00 16.5 9 Nordeste 14 Este 0 -- -- 71